createdAt,value
2018-12-17T00:00:03.238Z,60.50
2018-12-17T00:02:31.475Z,89.72
2018-12-17T00:04:59.814Z,64.30
2018-12-17T00:07:28.175Z,51.37
2018-12-17T00:09:56.439Z,45.55
2018-12-17T00:12:24.643Z,44.18
2018-12-17T00:14:52.836Z,43.45
2018-12-17T00:17:21.097Z,44.33
2018-12-17T00:19:49.575Z,48.08
2018-12-17T00:22:18.034Z,45.17
2018-12-17T00:24:46.335Z,40.75
2018-12-17T00:27:14.606Z,41.30
2018-12-17T00:29:42.790Z,37.98
2018-12-17T00:32:11.013Z,47.05
2018-12-17T00:34:39.268Z,43.42
2018-12-17T00:37:07.631Z,42.15
2018-12-17T00:39:35.820Z,46.68
2018-12-17T00:42:04.117Z,44.40
2018-12-17T00:44:32.322Z,50.33
2018-12-17T00:47:00.562Z,42.17
2018-12-17T00:49:28.771Z,47.43
2018-12-17T00:51:57.063Z,47.78
2018-12-17T00:54:25.267Z,48.08
2018-12-17T00:56:53.463Z,45.35
2018-12-17T00:59:21.693Z,50.25
2018-12-17T01:01:49.887Z,43.15
2018-12-17T01:04:18.130Z,44.20
2018-12-17T01:06:46.385Z,42.08
2018-12-17T01:09:15.208Z,40.95
2018-12-17T01:11:43.675Z,42.70
2018-12-17T01:14:11.956Z,42.10
2018-12-17T01:16:40.197Z,41.53
2018-12-17T01:19:08.521Z,45.75
2018-12-17T01:21:37.099Z,42.93
2018-12-17T01:24:05.426Z,44.35
2018-12-17T01:26:33.676Z,47.33
2018-12-17T01:29:01.931Z,45.28
2018-12-17T01:31:30.154Z,48.50
2018-12-17T01:33:58.398Z,43.55
2018-12-17T01:36:26.652Z,45.17
2018-12-17T01:38:54.914Z,41.28
2018-12-17T01:41:23.136Z,43.75
2018-12-17T01:43:51.367Z,41.13
2018-12-17T01:46:19.547Z,44.60
2018-12-17T01:48:47.863Z,42.48
2018-12-17T01:51:16.385Z,46.42
2018-12-17T01:53:44.608Z,38.83
2018-12-17T01:56:12.822Z,47.33
2018-12-17T01:58:41.150Z,45.85
2018-12-17T02:01:09.474Z,45.52
2018-12-17T02:03:37.760Z,47.58
2018-12-17T02:06:06.132Z,42.58
2018-12-17T02:08:34.485Z,43.65
2018-12-17T02:11:03.249Z,42.08
2018-12-17T02:15:57.599Z,44.03
2018-12-17T02:18:25.855Z,47.08
2018-12-17T02:20:54.172Z,42.58
2018-12-17T02:23:22.466Z,42.33
2018-12-17T02:25:50.723Z,42.67
2018-12-17T02:28:19.001Z,45.70
2018-12-17T02:30:47.295Z,50.08
2018-12-17T02:33:15.505Z,42.08
2018-12-17T02:35:43.859Z,45.78
2018-12-17T02:38:12.139Z,44.95
2018-12-17T02:40:40.435Z,43.80
2018-12-17T02:43:08.900Z,44.03
2018-12-17T02:45:37.286Z,47.00
2018-12-17T02:48:05.577Z,42.30
2018-12-17T02:50:33.790Z,49.33
2018-12-17T02:53:02.032Z,44.88
2018-12-17T02:55:30.300Z,46.45
2018-12-17T02:57:58.515Z,42.67
2018-12-17T03:00:26.780Z,44.30
2018-12-17T03:02:55.046Z,45.90
2018-12-17T03:05:23.270Z,43.23
2018-12-17T03:07:51.584Z,46.45
2018-12-17T03:10:19.748Z,46.37
2018-12-17T03:12:48.234Z,45.67
2018-12-17T03:15:16.510Z,41.90
2018-12-17T03:17:44.746Z,50.73
2018-12-17T03:20:13.065Z,48.87
2018-12-17T03:22:41.431Z,47.98
2018-12-17T03:25:10.042Z,45.83
2018-12-17T03:27:38.318Z,49.67
2018-12-17T03:30:06.974Z,46.92
2018-12-17T03:32:35.346Z,44.55
2018-12-17T03:35:03.881Z,45.30
2018-12-17T03:37:32.212Z,44.05
2018-12-17T03:40:00.427Z,43.78
2018-12-17T03:42:28.645Z,48.13
2018-12-17T03:44:56.860Z,48.38
2018-12-17T03:47:25.113Z,49.60
2018-12-17T03:49:53.367Z,46.60
2018-12-17T03:52:21.611Z,41.30
2018-12-17T03:54:49.781Z,42.98
2018-12-17T03:57:18.076Z,48.35
2018-12-17T03:59:46.407Z,45.98
2018-12-17T04:02:14.645Z,46.02
2018-12-17T04:04:43.458Z,47.62
2018-12-17T04:07:11.771Z,46.02
2018-12-17T04:09:40.248Z,43.23
2018-12-17T04:12:08.491Z,45.78
2018-12-17T04:14:36.732Z,41.90
2018-12-17T04:17:05.038Z,47.90
2018-12-17T04:19:33.280Z,45.73
2018-12-17T04:22:01.519Z,48.15
2018-12-17T04:24:29.851Z,45.52
2018-12-17T04:26:58.183Z,49.30
2018-12-17T04:29:26.733Z,46.90
2018-12-17T04:31:54.938Z,46.08
2018-12-17T04:34:23.222Z,46.70
2018-12-17T04:36:51.573Z,46.92
2018-12-17T04:39:20.285Z,44.50
2018-12-17T04:41:49.000Z,49.25
2018-12-17T04:44:17.265Z,43.23
2018-12-17T04:46:45.604Z,45.10
2018-12-17T04:49:14.083Z,49.18
2018-12-17T04:51:42.369Z,43.33
2018-12-17T04:54:10.935Z,48.50
2018-12-17T04:56:39.317Z,46.92
2018-12-17T04:59:14.352Z,44.08
2018-12-17T05:01:37.934Z,44.18
2018-12-17T05:04:06.127Z,52.15
2018-12-17T05:06:34.473Z,56.55
2018-12-17T05:09:02.952Z,57.80
2018-12-17T05:11:31.142Z,47.98
2018-12-17T05:13:59.357Z,45.48
2018-12-17T05:16:27.652Z,49.42
2018-12-17T05:18:55.954Z,47.50
2018-12-17T05:21:24.150Z,44.25
2018-12-17T05:23:52.517Z,44.40
2018-12-17T05:26:20.792Z,48.60
2018-12-17T05:28:49.166Z,46.20
2018-12-17T05:31:17.737Z,54.67
2018-12-17T05:33:46.240Z,50.55
2018-12-17T05:36:14.454Z,50.15
2018-12-17T05:38:42.738Z,52.45
2018-12-17T05:41:11.054Z,47.03
2018-12-17T05:43:39.308Z,47.23
2018-12-17T05:46:07.597Z,43.80
2018-12-17T05:48:35.852Z,48.05
2018-12-17T05:51:04.243Z,46.50
2018-12-17T05:53:32.608Z,56.37
2018-12-17T05:56:00.883Z,45.67
2018-12-17T05:58:29.204Z,45.43
2018-12-17T06:00:57.421Z,43.45
2018-12-17T06:03:25.750Z,52.05
2018-12-17T06:05:54.044Z,47.43
2018-12-17T06:08:22.307Z,48.33
2018-12-17T06:10:50.589Z,49.58
2018-12-17T06:13:18.950Z,51.15
2018-12-17T06:15:47.340Z,58.63
2018-12-17T06:18:15.595Z,56.77
2018-12-17T06:20:44.335Z,52.25
2018-12-17T06:23:12.690Z,47.80
2018-12-17T06:25:40.972Z,47.23
2018-12-17T06:28:09.433Z,51.23
2018-12-17T06:30:37.827Z,49.63
2018-12-17T06:33:06.100Z,52.98
2018-12-17T06:35:34.407Z,50.10
2018-12-17T06:38:02.644Z,52.10
2018-12-17T06:40:31.018Z,56.35
2018-12-17T06:42:59.307Z,49.48
2018-12-17T06:45:27.624Z,45.05
2018-12-17T06:47:56.271Z,52.25
2018-12-17T06:50:24.803Z,50.98
2018-12-17T06:52:54.539Z,50.60
2018-12-17T06:55:23.083Z,55.52
2018-12-17T06:57:51.941Z,49.30
2018-12-17T07:00:20.420Z,51.30
2018-12-17T07:02:48.703Z,56.35
2018-12-17T07:05:16.980Z,51.80
2018-12-17T07:07:45.559Z,51.23
2018-12-17T07:10:14.034Z,53.78
2018-12-17T07:12:42.486Z,54.13
2018-12-17T07:15:11.107Z,56.80
2018-12-17T07:17:39.478Z,52.20
2018-12-17T07:20:07.950Z,50.90
2018-12-17T07:22:36.361Z,53.38
2018-12-17T07:25:05.646Z,61.20
2018-12-17T07:27:33.918Z,55.12
2018-12-17T07:30:02.605Z,57.08
2018-12-17T07:32:31.085Z,60.10
2018-12-17T07:34:59.387Z,59.65
2018-12-17T07:37:27.841Z,55.12
2018-12-17T07:39:56.338Z,55.10
2018-12-17T07:42:25.830Z,57.55
2018-12-17T07:44:54.360Z,58.52
2018-12-17T07:47:22.697Z,60.50
2018-12-17T07:49:51.151Z,58.38
2018-12-17T07:52:19.480Z,64.82
2018-12-17T07:54:47.839Z,66.22
2018-12-17T07:57:16.308Z,63.58
2018-12-17T07:59:44.634Z,60.88
2018-12-17T08:02:13.287Z,62.73
2018-12-17T08:04:43.969Z,61.83
2018-12-17T08:07:12.587Z,72.32
2018-12-17T08:09:40.949Z,60.17
2018-12-17T08:12:09.554Z,66.37
2018-12-17T08:14:37.805Z,60.60
2018-12-17T08:17:06.230Z,60.80
2018-12-17T08:19:34.591Z,65.95
2018-12-17T08:22:02.864Z,73.15
2018-12-17T08:24:31.286Z,67.67
2018-12-17T08:26:59.906Z,70.20
2018-12-17T08:29:28.292Z,68.10
2018-12-17T08:31:56.648Z,66.45
2018-12-17T08:34:25.111Z,64.58
2018-12-17T08:36:53.436Z,65.17
2018-12-17T08:39:22.845Z,80.67
2018-12-17T08:41:51.497Z,70.57
2018-12-17T08:44:20.022Z,77.37
2018-12-17T08:46:48.417Z,62.98
2018-12-17T08:49:16.772Z,67.62
2018-12-17T08:51:45.261Z,64.85
2018-12-17T08:54:13.747Z,66.95
2018-12-17T08:56:42.119Z,65.72
2018-12-17T08:59:10.594Z,66.22
2018-12-17T09:01:39.081Z,67.20
2018-12-17T09:04:07.456Z,71.10
2018-12-17T09:06:35.926Z,70.40
2018-12-17T09:09:06.163Z,62.90
2018-12-17T09:11:34.646Z,62.95
2018-12-17T09:14:03.045Z,72.00
2018-12-17T09:16:31.640Z,65.55
2018-12-17T09:19:01.869Z,63.63
2018-12-17T09:21:30.723Z,70.50
2018-12-17T09:23:59.296Z,64.72
2018-12-17T09:26:27.706Z,66.00
2018-12-17T09:28:56.190Z,60.75
2018-12-17T09:31:24.852Z,65.52
2018-12-17T09:33:53.136Z,62.25
2018-12-17T09:36:21.573Z,57.80
2018-12-17T09:38:50.016Z,64.15
2018-12-17T09:41:18.374Z,63.23
2018-12-17T09:43:46.635Z,63.63
2018-12-17T09:46:14.885Z,62.27
2018-12-17T09:48:43.128Z,67.08
2018-12-17T09:51:11.457Z,62.00
2018-12-17T09:53:39.843Z,72.42
2018-12-17T09:56:08.338Z,69.05
2018-12-17T09:58:36.671Z,65.62
2018-12-17T10:01:05.070Z,66.85
2018-12-17T10:03:33.378Z,67.15
2018-12-17T10:06:01.853Z,62.58
2018-12-17T10:08:30.234Z,65.80
2018-12-17T10:10:58.708Z,63.68
2018-12-17T10:13:26.943Z,67.45
2018-12-17T10:15:55.231Z,63.00
2018-12-17T10:18:23.739Z,70.55
2018-12-17T10:20:51.956Z,63.28
2018-12-17T10:23:20.180Z,62.55
2018-12-17T10:25:48.424Z,62.98
2018-12-17T10:28:16.666Z,58.23
2018-12-17T10:30:45.052Z,62.40
2018-12-17T10:33:13.341Z,64.32
2018-12-17T10:35:41.564Z,59.15
2018-12-17T10:38:09.853Z,62.10
2018-12-17T10:40:38.727Z,62.03
2018-12-17T10:43:07.123Z,62.27
2018-12-17T10:45:35.719Z,67.65
2018-12-17T10:48:04.052Z,60.38
2018-12-17T10:50:32.473Z,62.93
2018-12-17T10:53:01.132Z,58.65
2018-12-17T10:55:31.370Z,58.10
2018-12-17T10:58:00.091Z,59.73
2018-12-17T11:00:39.372Z,59.08
2018-12-17T11:03:06.756Z,57.27
2018-12-17T11:05:36.795Z,56.92
2018-12-17T11:08:05.262Z,65.42
2018-12-17T11:10:33.641Z,60.23
2018-12-17T11:13:01.951Z,64.25
2018-12-17T11:15:30.198Z,62.48
2018-12-17T11:17:58.529Z,68.15
2018-12-17T11:20:27.168Z,66.53
2018-12-17T11:22:55.909Z,70.95
2018-12-17T11:25:24.431Z,63.52
2018-12-17T11:27:52.997Z,63.50
2018-12-17T11:30:21.353Z,68.37
2018-12-17T11:32:49.675Z,64.60
2018-12-17T11:35:17.982Z,62.35
2018-12-17T11:37:46.823Z,63.38
2018-12-17T11:40:17.230Z,62.08
2018-12-17T11:42:45.983Z,67.42
2018-12-17T11:45:15.341Z,65.25
2018-12-17T11:47:43.636Z,66.20
2018-12-17T11:50:12.132Z,63.90
2018-12-17T11:52:40.598Z,68.47
2018-12-17T11:55:09.262Z,64.12
2018-12-17T11:57:53.413Z,67.85
2018-12-17T12:00:24.042Z,61.95
2018-12-17T12:02:59.113Z,69.27
2018-12-17T12:05:25.947Z,74.07
2018-12-17T12:07:54.506Z,72.25
2018-12-17T12:10:22.998Z,68.85
2018-12-17T12:12:51.227Z,67.65
2018-12-17T12:15:19.659Z,67.82
2018-12-17T12:17:48.125Z,67.10
2018-12-17T12:20:16.595Z,69.67
2018-12-17T12:22:44.929Z,72.80
2018-12-17T12:25:13.304Z,72.30
2018-12-17T12:27:42.050Z,66.50
2018-12-17T12:30:11.513Z,69.03
2018-12-17T12:32:39.741Z,64.37
2018-12-17T12:35:08.917Z,63.42
2018-12-17T12:37:37.330Z,64.27
2018-12-17T12:40:07.956Z,64.00
2018-12-17T12:42:36.442Z,67.08
2018-12-17T12:45:05.321Z,63.15
2018-12-17T12:47:33.695Z,69.17
2018-12-17T12:50:03.714Z,66.35
2018-12-17T12:52:32.205Z,67.45
2018-12-17T12:55:00.472Z,73.60
2018-12-17T12:57:28.981Z,64.32
2018-12-17T12:59:57.408Z,71.85
2018-12-17T13:02:26.020Z,68.87
2018-12-17T13:04:54.681Z,65.55
2018-12-17T13:07:23.395Z,70.60
2018-12-17T13:09:51.801Z,73.70
2018-12-17T13:12:20.349Z,70.32
2018-12-17T13:14:49.096Z,81.28
2018-12-17T13:17:29.018Z,80.55
2018-12-17T13:19:57.487Z,83.65
2018-12-17T13:22:26.129Z,85.60
2018-12-17T13:24:54.534Z,80.85
2018-12-17T13:27:22.916Z,77.97
2018-12-17T13:29:51.399Z,78.80
2018-12-17T13:32:19.771Z,87.55
2018-12-17T13:34:48.155Z,73.20
2018-12-17T13:37:16.798Z,78.87
2018-12-17T13:39:45.224Z,74.47
2018-12-17T13:42:13.585Z,94.67
2018-12-17T13:44:42.081Z,90.03
2018-12-17T13:47:10.669Z,82.80
2018-12-17T13:49:39.042Z,86.67
2018-12-17T13:52:13.049Z,70.22
2018-12-17T13:54:41.484Z,74.22
2018-12-17T13:57:09.912Z,82.62
2018-12-17T13:59:38.214Z,73.78
2018-12-17T14:02:06.720Z,69.45
2018-12-17T14:04:35.253Z,75.32
2018-12-17T14:07:03.906Z,73.57
2018-12-17T14:09:34.284Z,73.02
2018-12-17T14:12:02.714Z,70.60
2018-12-17T14:14:31.177Z,74.58
2018-12-17T14:17:05.443Z,66.30
2018-12-17T14:19:33.921Z,71.00
2018-12-17T14:22:04.570Z,73.02
2018-12-17T14:24:32.890Z,75.85
2018-12-17T14:27:02.075Z,71.20
2018-12-17T14:29:30.523Z,68.40
2018-12-17T14:31:58.716Z,74.42
2018-12-17T14:34:27.367Z,68.35
2018-12-17T14:36:55.950Z,64.45
2018-12-17T14:39:24.329Z,63.25
2018-12-17T14:41:54.044Z,61.65
2018-12-17T14:44:28.908Z,59.23
2018-12-17T14:46:58.512Z,63.30
2018-12-17T14:49:27.012Z,56.65
2018-12-17T14:51:55.783Z,64.45
2018-12-17T14:54:24.494Z,64.50
2018-12-17T14:56:53.061Z,60.83
2018-12-17T14:59:21.512Z,60.17
2018-12-17T15:01:49.992Z,65.87
2018-12-17T15:04:18.536Z,66.95
2018-12-17T15:06:48.787Z,63.75
2018-12-17T15:09:17.601Z,68.67
2018-12-17T15:11:46.268Z,59.73
2018-12-17T15:14:15.159Z,58.50
2018-12-17T15:16:43.639Z,63.45
2018-12-17T15:19:13.843Z,61.83
2018-12-17T15:21:42.420Z,56.05
2018-12-17T15:24:11.025Z,59.63
2018-12-17T15:26:40.243Z,62.55
2018-12-17T15:29:08.681Z,59.27
2018-12-17T15:31:42.996Z,64.25
2018-12-17T15:34:07.357Z,61.77
2018-12-17T15:36:35.705Z,55.25
2018-12-17T15:39:05.117Z,60.75
2018-12-17T15:41:33.324Z,70.37
2018-12-17T15:44:01.727Z,70.95
2018-12-17T15:46:30.165Z,61.92
2018-12-17T15:48:58.436Z,83.25
2018-12-17T15:51:26.694Z,79.07
2018-12-17T15:53:54.976Z,69.55
2018-12-17T15:56:25.144Z,76.80
2018-12-17T15:58:53.363Z,72.42
2018-12-17T16:01:21.644Z,86.15
2018-12-17T16:03:49.934Z,107.95
2018-12-17T16:06:18.285Z,144.35
2018-12-17T16:08:46.884Z,118.08
2018-12-17T16:11:15.118Z,70.42
2018-12-17T16:13:43.323Z,74.60
2018-12-17T16:16:11.548Z,62.17
2018-12-17T16:18:39.737Z,83.10
2018-12-17T16:21:07.979Z,70.85
2018-12-17T16:23:36.339Z,66.20
2018-12-17T16:26:04.679Z,69.90
2018-12-17T16:28:32.979Z,72.72
2018-12-17T16:31:01.202Z,74.42
2018-12-17T16:33:30.039Z,69.82
2018-12-17T16:35:58.597Z,72.00
2018-12-17T16:38:26.805Z,71.55
2018-12-17T16:40:55.018Z,74.95
2018-12-17T16:43:23.346Z,70.47
2018-12-17T16:45:51.671Z,62.17
2018-12-17T16:48:20.002Z,63.63
2018-12-17T16:50:48.227Z,97.27
2018-12-17T16:53:16.576Z,81.90
2018-12-17T16:55:44.798Z,77.00
2018-12-17T16:58:13.101Z,71.25
2018-12-17T17:00:41.322Z,70.20
2018-12-17T17:03:09.559Z,76.25
2018-12-17T17:05:37.855Z,75.10
2018-12-17T17:08:07.261Z,74.82
2018-12-17T17:10:35.475Z,78.57
2018-12-17T17:13:03.638Z,74.67
2018-12-17T17:15:31.910Z,80.80
2018-12-17T17:18:00.264Z,88.00
2018-12-17T17:20:28.523Z,118.77
2018-12-17T17:22:56.821Z,102.22
2018-12-17T17:25:25.292Z,103.60
2018-12-17T17:27:53.669Z,94.85
2018-12-17T17:30:21.923Z,89.60
2018-12-17T17:32:50.309Z,83.80
2018-12-17T17:35:18.603Z,84.87
2018-12-17T17:37:46.855Z,82.53
2018-12-17T17:40:15.079Z,83.15
2018-12-17T17:42:43.272Z,76.02
2018-12-17T17:45:11.516Z,78.17
2018-12-17T17:47:39.755Z,77.03
2018-12-17T17:50:08.076Z,76.17
2018-12-17T17:52:36.449Z,76.87
2018-12-17T17:55:05.112Z,81.25
2018-12-17T17:57:33.509Z,77.90
2018-12-17T18:00:01.683Z,81.78
2018-12-17T18:02:30.063Z,85.67
2018-12-17T18:04:58.896Z,86.47
2018-12-17T18:07:27.155Z,86.57
2018-12-17T18:09:55.815Z,80.53
2018-12-17T18:12:24.213Z,87.37
2018-12-17T18:14:52.566Z,84.80
2018-12-17T18:17:20.847Z,84.35
2018-12-17T18:19:49.089Z,84.67
2018-12-17T18:22:17.329Z,84.10
2018-12-17T18:24:45.542Z,89.45
2018-12-17T18:27:14.210Z,91.97
2018-12-17T18:29:42.414Z,92.67
2018-12-17T18:32:10.810Z,83.45
2018-12-17T18:34:39.087Z,92.65
2018-12-17T18:37:07.467Z,92.62
2018-12-17T18:39:35.802Z,89.07
2018-12-17T18:42:04.192Z,86.67
2018-12-17T18:44:32.480Z,82.50
2018-12-17T18:47:00.677Z,86.80
2018-12-17T18:49:28.963Z,92.12
2018-12-17T18:51:57.184Z,96.85
2018-12-17T18:54:25.607Z,79.30
2018-12-17T18:56:53.893Z,82.72
2018-12-17T18:59:22.119Z,79.77
2018-12-17T19:01:50.504Z,93.97
2018-12-17T19:04:18.821Z,92.00
2018-12-17T19:06:47.206Z,94.65
2018-12-17T19:09:15.797Z,105.30
2018-12-17T19:11:43.982Z,100.95
2018-12-17T19:14:12.229Z,91.35
2018-12-17T19:16:40.484Z,86.32
2018-12-17T19:19:09.301Z,78.78
2018-12-17T19:21:37.581Z,77.92
2018-12-17T19:24:05.834Z,84.47
2018-12-17T19:26:34.085Z,92.90
2018-12-17T19:29:02.332Z,78.60
2018-12-17T19:31:34.543Z,84.17
2018-12-17T19:34:01.022Z,81.12
2018-12-17T19:36:29.307Z,87.08
2018-12-17T19:38:57.660Z,80.32
2018-12-17T19:41:26.038Z,83.20
2018-12-17T19:43:54.294Z,91.83
2018-12-17T19:46:22.729Z,86.80
2018-12-17T19:48:51.076Z,88.70
2018-12-17T19:51:19.361Z,79.27
2018-12-17T19:53:47.641Z,94.90
2018-12-17T19:56:16.005Z,88.85
2018-12-17T19:58:44.404Z,105.97
2018-12-17T20:01:12.647Z,88.82
2018-12-17T20:03:40.909Z,88.40
2018-12-17T20:06:09.651Z,87.95
2018-12-17T20:08:38.011Z,90.47
2018-12-17T20:11:06.389Z,91.30
2018-12-17T20:13:34.599Z,93.33
2018-12-17T20:16:02.824Z,85.40
2018-12-17T20:18:31.091Z,89.58
2018-12-17T20:20:59.495Z,94.45
2018-12-17T20:23:27.859Z,98.58
2018-12-17T20:25:56.074Z,93.42
2018-12-17T20:28:24.285Z,104.07
2018-12-17T20:30:52.507Z,111.40
2018-12-17T20:33:20.783Z,101.18
2018-12-17T20:35:49.051Z,120.50
2018-12-17T20:38:17.258Z,113.60
2018-12-17T20:40:45.744Z,109.42
2018-12-17T20:43:14.049Z,92.95
2018-12-17T20:45:42.264Z,92.72
2018-12-17T20:48:10.507Z,100.78
2018-12-17T20:50:38.903Z,93.55
2018-12-17T20:53:07.108Z,109.15
2018-12-17T20:55:35.483Z,88.15
2018-12-17T20:58:03.717Z,101.90
2018-12-17T21:00:31.994Z,125.50
2018-12-17T21:03:00.665Z,110.00
2018-12-17T21:05:29.061Z,109.45
2018-12-17T21:07:57.477Z,106.03
2018-12-17T21:10:26.291Z,96.35
2018-12-17T21:12:54.953Z,113.50
2018-12-17T21:15:25.132Z,97.25
2018-12-17T21:17:53.369Z,97.47
2018-12-17T21:20:21.721Z,94.15
2018-12-17T21:22:50.000Z,82.80
2018-12-17T21:25:18.188Z,98.25
2018-12-17T21:27:46.459Z,95.28
2018-12-17T21:30:14.698Z,99.97
2018-12-17T21:32:43.105Z,85.15
2018-12-17T21:35:11.480Z,96.23
2018-12-17T21:37:39.715Z,94.22
2018-12-17T21:40:08.023Z,92.78
2018-12-17T21:42:36.288Z,88.95
2018-12-17T21:45:05.870Z,83.40
2018-12-17T21:47:34.223Z,89.67
2018-12-17T21:50:02.698Z,86.47
2018-12-17T21:52:30.934Z,103.58
2018-12-17T21:54:59.134Z,100.78
2018-12-17T21:57:27.378Z,86.92
2018-12-17T21:59:55.570Z,77.50
2018-12-17T22:02:23.956Z,93.20
2018-12-17T22:04:52.146Z,88.60
2018-12-17T22:07:20.352Z,101.10
2018-12-17T22:09:48.670Z,95.77
2018-12-17T22:12:16.966Z,85.38
2018-12-17T22:14:45.192Z,98.03
2018-12-17T22:17:13.423Z,101.27
2018-12-17T22:19:41.689Z,94.03
2018-12-17T22:22:09.897Z,95.03
2018-12-17T22:24:38.120Z,95.67
2018-12-17T22:27:06.315Z,88.55
2018-12-17T22:29:34.541Z,107.83
2018-12-17T22:32:02.769Z,99.35
2018-12-17T22:34:30.978Z,93.17
2018-12-17T22:36:59.324Z,88.27
2018-12-17T22:39:27.761Z,94.17
2018-12-17T22:41:56.384Z,94.65
2018-12-17T22:44:24.693Z,107.07
2018-12-17T22:46:52.906Z,89.77
2018-12-17T22:49:21.119Z,83.80
2018-12-17T22:51:49.322Z,83.87
2018-12-17T22:54:17.641Z,78.17
2018-12-17T22:56:45.861Z,81.92
2018-12-17T22:59:14.145Z,84.95
2018-12-17T23:01:42.454Z,88.30
2018-12-17T23:04:10.652Z,100.55
2018-12-17T23:06:38.954Z,84.25
2018-12-17T23:09:07.301Z,81.78
2018-12-17T23:11:53.529Z,88.95
2018-12-17T23:14:33.821Z,75.00
2018-12-17T23:17:14.143Z,91.85
2018-12-17T23:19:43.638Z,94.85
2018-12-17T23:22:12.011Z,76.17
2018-12-17T23:24:40.305Z,80.12
2018-12-17T23:27:08.643Z,73.30
2018-12-17T23:29:36.934Z,71.53
2018-12-17T23:32:05.328Z,68.55
2018-12-17T23:34:33.849Z,67.50
2018-12-17T23:37:02.176Z,58.78
2018-12-17T23:39:30.582Z,62.98
2018-12-17T23:41:58.865Z,54.48
2018-12-17T23:44:27.129Z,53.25
2018-12-17T23:46:55.707Z,54.03
2018-12-17T23:49:24.164Z,52.80
2018-12-17T23:51:52.392Z,47.65
2018-12-17T23:54:20.611Z,51.33
2018-12-17T23:56:49.322Z,46.02
2018-12-17T23:59:17.573Z,52.05
